Home > Products > Valid Products > TAF

000
FTUS43 KMQT 231100
TAFSAW
TAF
KSAW 231120Z 2312/2412 35004KT P6SM SKC
     FM232000 07008KT P6SM FEW250
     FM240200 12004KT P6SM SCT200
      AMD LTD TO CLD VIS AND WIND 2402/2410=



000
FTUS43 KMQT 231100
TAFCMX
TAF
KCMX 231120Z 2312/2412 VRB03KT P6SM SKC
     FM231700 10007KT P6SM FEW250=



000
FTUS43 KMQT 230500
TAFCMX
TAF
KCMX 230520Z 2306/2406 VRB03KT P6SM SKC
     FM231700 10007KT P6SM SCT250=



000
FTUS43 KMQT 230500
TAFSAW
TAF
KSAW 230520Z 2306/2406 36006KT P6SM SKC
     FM231400 04008KT P6SM SKC
     FM240000 VRB03KT P6SM SKC
      AMD LTD TO CLD VIS AND WIND TIL 231000=



000
FTUS43 KMQT 222300
TAFCMX
TAF
KCMX 222321Z 2300/2324 34006KT P6SM SKC
     FM230600 VRB03KT P6SM SKC
     FM231500 10007KT P6SM SCT250=



000
FTUS43 KMQT 222300
TAFSAW
TAF
KSAW 222321Z 2300/2324 35012G20KT P6SM BKN035
     FM230100 34007KT P6SM SKC
     FM230700 00000KT P6SM SKC
     FM231400 04008KT P6SM SKC
      AMD LTD TO CLD VIS AND WIND 2302/2310=



000
FTUS43 KMQT 221700
TAFCMX
TAF
KCMX 221737Z 2218/2318 33016G22KT P6SM SCT019 OVC027
      TEMPO 2218/2220 6SM -SHSNRA
     FM222000 33015G21KT P6SM BKN035
     FM222200 32010KT P6SM SCT035
     FM230000 32007KT P6SM SKC
     FM230600 VRB03KT P6SM SKC=



000
FTUS43 KMQT 221700
TAFSAW
TAF
KSAW 221737Z 2218/2318 34016G25KT P6SM -SHSN OVC028
     FM222100 35012G22KT P6SM BKN035
     FM230100 34007KT P6SM SKC
     FM230700 00000KT P6SM SKC
     FM231400 03007KT P6SM SKC
      AMD LTD TO CLD VIS AND WIND 2302/2310=



000
FTUS43 KMQT 221600 AAA
TAFCMX
TAF AMD
KCMX 221606Z 2216/2312 32014G21KT P6SM SCT015 OVC025
      TEMPO 2216/2218 5SM -SHSN BKN015
     FM222100 32010G20KT P6SM SCT035
     FM230000 32005KT P6SM SKC=



000
FTUS43 KMQT 221100
TAFCMX
TAF
KCMX 221121Z 2212/2312 32013G23KT P6SM OVC035
      TEMPO 2213/2216 BKN025
     FM221900 32010G20KT P6SM SCT040
     FM230000 32005KT P6SM SKC=



000
FTUS43 KMQT 221100
TAFSAW
TAF
KSAW 221121Z 2212/2312 34015G25KT P6SM OVC025
      TEMPO 2212/2216 -SHSN BKN015
     FM222300 35012G22KT P6SM SCT030
     FM230100 35007KT P6SM SKC
      AMD LTD TO CLD VIS AND WIND 2302/2310=



000
FTUS43 KMQT 220900 AAA
TAFCMX
TAF AMD
KCMX 220908Z 2209/2306 32013G23KT P6SM OVC035
     FM221100 32013G23KT P6SM OVC025
     FM221600 32013G21KT P6SM BKN035
     FM221800 31013G19KT P6SM SCT040
     FM230000 35005KT P6SM SKC=



000
FTUS43 KMQT 220500
TAFCMX
TAF
KCMX 220523Z 2206/2306 31015G23KT P6SM OVC025
     FM221600 32013G21KT P6SM BKN035
     FM221800 31013G19KT P6SM SCT040
     FM230000 35005KT P6SM SKC=



000
FTUS43 KMQT 220500
TAFSAW
TAF
KSAW 220523Z 2206/2306 32015G23KT P6SM OVC035
     FM221000 34015G24KT P6SM OVC025
     FM222000 36014G21KT P6SM SCT035
     FM230000 35007KT P6SM SKC
      AMD LTD TO CLD VIS AND WIND TIL 221000=



000
FTUS43 KMQT 212300
TAFCMX
TAF
KCMX 212337Z 2200/2224 30018G25KT P6SM SCT040
     FM220400 31016G23KT P6SM OVC020
     FM221500 33014G21KT P6SM BKN025
     FM221900 31012G18KT P6SM SCT040=



000
FTUS43 KMQT 212300
TAFSAW
TAF
KSAW 212337Z 2200/2224 01008KT P6SM SKC
     FM220100 32012G18KT P6SM SCT040
     FM220400 32015G23KT P6SM OVC025
     FM221500 35017G25KT P6SM OVC025
     FM222000 35013G21KT P6SM SCT035
      AMD LTD TO CLD VIS AND WIND 2202/2210=



000
FTUS43 KMQT 212200 AAA
TAFCMX
TAF AMD
KCMX 212243Z 2123/2218 29019G25KT P6SM SCT040
     FM220100 29018G26KT P6SM BKN030
     FM220300 31018G28KT P6SM OVC015
     FM221500 33016G23KT P6SM BKN020=



000
FTUS43 KMQT 211700
TAFSAW
TAF
KSAW 211738Z 2118/2218 23007KT P6SM SCT100
     FM212000 31009KT P6SM SCT100
     FM220100 31012G22KT P6SM BKN030
     FM220300 32014G21KT P6SM OVC010
     FM221500 35017G24KT P6SM OVC020
      AMD LTD TO CLD VIS AND WIND 2202/2210=



000
FTUS43 KMQT 211700
TAFCMX
TAF
KCMX 211738Z 2118/2218 VRB03KT P6SM SCT035 BKN100
     FM211900 29011G18KT P6SM SKC
     FM212000 29015G25KT P6SM SCT040
     FM212200 29018G26KT P6SM BKN030
     FM220200 31018G28KT P6SM OVC010
     FM221500 33016G23KT P6SM BKN020=



000
FTUS43 KMQT 211100
TAFCMX
TAF
KCMX 211121Z 2112/2212 VRB03KT P6SM SCT250
     FM211400 11005KT P6SM BKN100
     FM211800 29013KT P6SM SCT100
     FM220100 31018G28KT P6SM BKN009=



000
FTUS43 KMQT 211100
TAFSAW
TAF
KSAW 211121Z 2112/2212 17005KT P6SM BKN200
      TEMPO 2112/2113 5SM BR
     FM211700 23007KT P6SM VCSH BKN040
     FM212000 32009KT P6SM SCT100
     FM220300 32012G22KT P6SM BKN015
      AMD LTD TO CLD VIS AND WIND 2202/2210=



000
FTUS43 KMQT 210900 AAB
TAFCMX
TAF AMD
KCMX 210936Z 2110/2206 VRB03KT P6SM SKC
     FM211400 14006KT P6SM SCT100
     FM211900 30012G18KT P6SM SCT100
     FM220100 30012KT P6SM SCT050=



000
FTUS43 KMQT 210900 AAB
TAFSAW
TAF AMD
KSAW 210932Z 2110/2206 VRB03KT 3SM BR SCT002
      TEMPO 2110/2112 1/2SM FG
     FM211500 15005KT P6SM FEW007 SCT120
     FM211900 01009KT P6SM BKN035
     FM220100 32009KT P6SM BKN035
      AMD LTD TO CLD VIS AND WIND TIL 211000=



000
FTUS43 KMQT 210800 AAA
TAFCMX
TAF AMD
KCMX 210826Z 2108/2206 VRB03KT P6SM SKC
     FM211000 10004KT 5SM BR SCT250
     FM211400 14006KT P6SM SCT100
     FM211900 30012G18KT P6SM SCT100
     FM220100 30012KT P6SM SCT050=



000
FTUS43 KMQT 210600 AAA
TAFSAW
TAF AMD
KSAW 210613Z 2106/2206 VRB03KT 1/4SM FG VV001
      TEMPO 2109/2113 1/2SM FG VV002
     FM211300 VRB03KT 1SM BR BKN002
     FM211400 15004KT 3SM BR SCT005
     FM211500 15005KT P6SM FEW007 SCT120
     FM211900 01009KT P6SM BKN035
     FM220100 32009KT P6SM BKN035
      AMD LTD TO CLD VIS AND WIND TIL 211000=



000
FTUS43 KMQT 210500
TAFCMX
TAF
KCMX 210522Z 2106/2206 VRB03KT P6SM SKC
     FM210800 10004KT 2SM BR SCT005
     FM211400 14006KT P6SM SCT100
     FM211900 30012G18KT P6SM SCT100
     FM220100 30012KT P6SM SCT050=



000
FTUS43 KMQT 210500
TAFSAW
TAF
KSAW 210522Z 2106/2206 VRB03KT 3SM BR SKC
     FM210700 VRB03KT 1/2SM FG VV002
      TEMPO 2108/2112 1/4SM FG VV001
     FM211400 15004KT 3SM BR SCT005
     FM211500 15005KT P6SM FEW007 SCT120
     FM211900 01009KT P6SM BKN035
     FM220100 32009KT P6SM BKN035
      AMD LTD TO CLD VIS AND WIND TIL 211000=



000
FTUS43 KMQT 202300
TAFCMX
TAF
KCMX 202338Z 2100/2124 VRB03KT P6SM SKC
     FM210700 09003KT 2SM BR SCT005
     FM211400 14006KT P6SM SCT100
     FM211800 29012KT P6SM SCT100=



000
FTUS43 KMQT 202300
TAFSAW
TAF
KSAW 202338Z 2100/2124 18005KT P6SM FEW200
     FM210300 VRB03KT 4SM BR FEW005
     FM210600 VRB03KT 2SM BR SCT002
     FM210900 VRB03KT 3/4SM BR VV002
     FM211500 14004KT P6SM FEW007 SCT120
     FM211900 02010KT P6SM BKN035
      AMD LTD TO CLD VIS AND WIND 2102/2110=



000
FTUS43 KMQT 201700
TAFSAW
TAF
KSAW 201728Z 2018/2118 23008KT P6SM FEW200
     FM202100 05007KT P6SM SKC
     FM210300 VRB03KT 4SM BR FEW005
     FM210600 VRB03KT 2SM BR SCT002
     FM210900 VRB03KT 1SM BR VV002
     FM211500 16003KT P6SM FEW007 SCT120
      AMD LTD TO CLD VIS AND WIND 2102/2110=



000
FTUS43 KMQT 201700
TAFCMX
TAF
KCMX 201728Z 2018/2118 30010KT P6SM SKC
     FM210000 VRB03KT P6SM SKC
     FM210600 09003KT 2SM BR SCT005
     FM211400 25006KT P6SM SCT100=



    US Dept of Commerce
    National Oceanic and Atmospheric Administration
    National Weather Service
    1325 East West Highway
    Silver Spring, MD 20910
    Page Author: NWS Internet Services Team
Disclaimer
Information Quality
Credits
Glossary
Privacy Policy
Freedom of Information Act (FOIA)
About Us
Career Opportunities